Time;durP1;ratioP1;P1;durP2;ratioP2;P2;SDS_P1;SDS_P2;PMS_P1;PMS_P2;Temp;Humidity;BMP_temperature;BMP_pressure;BME280_temperature;BME280_humidity;BME280_pressure;Samples;Min_cycle;Max_cycle;Signal;HPM_P1;HPM_P2
2022/11/10 00:01:43;;;;;;;26.80;12.23;;;;;;;7.24;77.05;101311.23;124534;1098;104326;-76
2022/11/10 00:04:33;;;;;;;25.20;12.43;;;;;;;7.20;76.97;101308.42;124564;1099;104242;-75
2022/11/10 00:07:26;;;;;;;27.13;12.23;;;;;;;7.22;77.10;101311.13;124539;1099;104248;-76
2022/11/10 00:10:16;;;;;;;24.87;12.37;;;;;;;7.22;77.12;101310.24;124524;1099;104223;-76
2022/11/10 00:13:06;;;;;;;25.90;11.97;;;;;;;7.19;77.37;101309.22;124576;1098;104169;-76
2022/11/10 00:19:05;;;;;;;26.00;12.73;;;;;;;7.17;77.45;101304.73;124531;1099;104060;-76
2022/11/10 00:21:55;;;;;;;25.00;11.53;;;;;;;7.18;77.69;101311.73;124610;1099;104172;-76
2022/11/10 00:24:45;;;;;;;26.43;12.23;;;;;;;7.17;77.65;101305.63;124668;1099;104172;-76
2022/11/10 00:27:36;;;;;;;23.10;11.37;;;;;;;7.16;78.01;101306.42;124589;1099;104219;-76
2022/11/10 00:30:26;;;;;;;22.27;11.17;;;;;;;7.16;77.50;101313.36;124616;1099;104284;-76
2022/11/10 00:33:16;;;;;;;25.50;11.80;;;;;;;7.14;77.67;101300.21;124566;1098;104355;-76
2022/11/10 00:36:06;;;;;;;26.45;12.25;;;;;;;7.14;77.66;101297.61;124604;1099;104201;-76
2022/11/10 00:38:56;;;;;;;23.40;11.43;;;;;;;7.14;77.91;101294.10;124553;1099;109908;-76
2022/11/10 00:41:50;;;;;;;21.77;10.80;;;;;;;7.13;78.19;101287.95;124707;1098;104217;-76
2022/11/10 00:44:40;;;;;;;23.97;11.50;;;;;;;7.13;78.28;101295.78;124573;1099;102463;-76
2022/11/10 00:47:30;;;;;;;22.43;10.67;;;;;;;7.13;78.22;101297.51;124555;1099;104479;-76
2022/11/10 00:50:20;;;;;;;23.87;10.87;;;;;;;7.12;78.41;101293.08;124594;1099;102219;-76
2022/11/10 00:53:10;;;;;;;25.57;11.10;;;;;;;7.12;78.37;101288.79;124597;1099;104267;-76
2022/11/10 00:55:59;;;;;;;23.30;11.90;;;;;;;7.12;78.23;101287.86;124610;1098;104195;-76
2022/11/10 00:58:49;;;;;;;24.63;11.67;;;;;;;7.11;78.16;101286.97;124654;1099;104281;-76
2022/11/10 01:01:39;;;;;;;27.30;10.80;;;;;;;7.10;78.34;101294.70;124965;1099;102312;-76
2022/11/10 01:04:29;;;;;;;22.50;11.07;;;;;;;7.08;78.54;101297.22;124576;1099;104197;-76
2022/11/10 01:07:19;;;;;;;24.77;11.37;;;;;;;7.07;78.48;101295.41;124612;1099;104313;-76
2022/11/10 01:10:09;;;;;;;23.63;11.10;;;;;;;7.08;78.82;101296.33;124612;1099;102470;-76
2022/11/10 01:12:59;;;;;;;26.17;12.20;;;;;;;7.05;78.66;101296.14;124600;1099;104608;-76
2022/11/10 01:16:10;;;;;;;25.93;12.90;;;;;;;7.04;78.65;101295.21;124612;1099;102728;-77
2022/11/10 01:19:02;;;;;;;24.37;11.07;;;;;;;7.02;78.67;101296.84;124586;1099;104210;-75
2022/11/10 01:21:53;;;;;;;21.87;10.57;;;;;;;7.01;78.88;101297.63;124608;1099;104198;-77
2022/11/10 01:24:43;;;;;;;24.30;11.67;;;;;;;7.00;78.66;101299.34;124541;1099;104178;-76
2022/11/10 01:27:32;;;;;;;23.13;11.80;;;;;;;7.00;78.50;101301.06;124593;1099;103135;-76
2022/11/10 01:30:22;;;;;;;24.03;11.20;;;;;;;7.00;79.03;101303.67;124617;1099;104367;-76
2022/11/10 01:33:12;;;;;;;26.50;12.50;;;;;;;6.99;79.05;101299.25;124609;1099;102876;-76
2022/11/10 01:36:02;;;;;;;22.13;11.17;;;;;;;6.98;78.88;101298.36;124604;1099;101826;-76
2022/11/10 01:38:52;;;;;;;23.30;11.25;;;;;;;6.97;79.01;101293.05;124584;1099;104277;-76
2022/11/10 01:41:41;;;;;;;23.97;11.13;;;;;;;6.95;79.22;101292.95;124613;1097;104315;-76
2022/11/10 01:44:31;;;;;;;22.47;10.77;;;;;;;6.94;79.08;101287.63;124556;1099;104380;-77
2022/11/10 01:47:21;;;;;;;24.37;11.13;;;;;;;6.92;79.03;101290.14;124587;1099;102339;-76
2022/11/10 01:50:11;;;;;;;22.67;11.47;;;;;;;6.90;79.27;101296.06;124574;1098;111606;-76
2022/11/10 01:53:03;;;;;;;24.17;11.70;;;;;;;6.89;79.20;101287.34;124654;1099;102909;-76
2022/11/10 01:55:54;;;;;;;27.55;11.95;;;;;;;6.87;79.18;101296.76;124640;1099;104226;-76
2022/11/10 01:58:49;;;;;;;24.57;12.47;;;;;;;6.87;79.38;101304.58;124552;1099;104064;-76
2022/11/10 02:01:39;;;;;;;24.40;11.87;;;;;;;6.86;79.40;101301.87;124661;1099;102228;-75
2022/11/10 02:04:30;;;;;;;24.70;12.17;;;;;;;6.83;79.65;101303.50;124572;1099;104264;-77
2022/11/10 02:07:22;;;;;;;25.57;13.27;;;;;;;6.82;79.55;101304.33;124620;1099;102924;-76
2022/11/10 02:10:18;;;;;;;27.17;13.90;;;;;;;6.82;79.48;101303.40;124589;1099;104307;-76
2022/11/10 02:13:07;;;;;;;25.13;12.57;;;;;;;6.80;79.48;101295.48;124557;1099;104251;-75
2022/11/10 02:15:57;;;;;;;25.43;12.43;;;;;;;6.78;79.80;101310.14;124604;1098;104169;-76
2022/11/10 02:18:47;;;;;;;29.23;13.20;;;;;;;6.77;79.51;101303.11;124607;1099;104248;-76
2022/11/10 02:21:37;;;;;;;23.63;12.57;;;;;;;6.77;79.48;101305.72;124588;1099;104241;-76
2022/11/10 02:24:27;;;;;;;23.57;12.27;;;;;;;6.76;79.66;101311.76;124603;1099;104181;-77
2022/11/10 02:27:17;;;;;;;29.60;14.47;;;;;;;6.75;80.04;101307.33;124534;1099;104280;-76
2022/11/10 02:30:09;;;;;;;24.97;12.73;;;;;;;6.74;80.32;101307.23;124598;1098;104245;-76
2022/11/10 02:32:59;;;;;;;26.10;12.60;;;;;;;6.75;79.64;101316.88;124604;1099;104172;-76
2022/11/10 02:35:50;;;;;;;24.03;12.37;;;;;;;6.75;80.44;101311.66;124595;1099;104252;-76
2022/11/10 02:38:40;;;;;;;28.27;13.67;;;;;;;6.77;80.51;101313.54;124588;1099;104169;-75
2022/11/10 02:41:29;;;;;;;26.83;13.33;;;;;;;6.81;80.25;101318.16;124562;1099;108026;-76
2022/11/10 02:44:19;;;;;;;28.97;13.80;;;;;;;6.84;80.55;101320.08;124633;1098;104626;-76
2022/11/10 02:47:09;;;;;;;28.73;13.77;;;;;;;6.90;80.40;101329.98;124528;1099;104338;-75
2022/11/10 02:49:59;;;;;;;26.77;13.13;;;;;;;6.93;80.81;101320.63;124565;1099;104270;-77
2022/11/10 02:52:49;;;;;;;27.50;14.03;;;;;;;6.96;80.70;101319.93;124589;1099;104165;-76
2022/11/10 02:55:40;;;;;;;29.57;14.23;;;;;;;6.99;80.81;101314.91;124538;1099;104197;-75
2022/11/10 02:58:29;;;;;;;27.10;13.50;;;;;;;7.02;80.78;101315.99;124602;1099;102665;-76
2022/11/10 03:01:19;;;;;;;30.87;14.07;;;;;;;7.06;81.00;101311.89;124560;1099;102864;-76
2022/11/10 03:04:09;;;;;;;30.27;14.70;;;;;;;7.11;80.88;101312.18;124618;1099;104169;-76
2022/11/10 03:06:59;;;;;;;32.93;14.93;;;;;;;7.14;81.22;101318.48;124598;1099;104193;-76
2022/11/10 03:09:49;;;;;;;31.63;15.10;;;;;;;7.17;81.22;101318.67;124533;1099;104389;-76
2022/11/10 03:12:42;;;;;;;28.53;13.97;;;;;;;7.20;81.29;101312.75;124596;1099;104124;-75
2022/11/10 03:15:32;;;;;;;29.17;14.77;;;;;;;7.23;81.36;101317.24;124620;1099;102937;-76
2022/11/10 03:18:22;;;;;;;32.80;16.30;;;;;;;7.26;81.15;101312.22;124599;1098;104227;-75
2022/11/10 03:21:11;;;;;;;31.53;15.60;;;;;;;7.29;81.25;101312.41;124590;1099;104260;-75
2022/11/10 03:24:01;;;;;;;37.03;17.03;;;;;;;7.31;81.46;101305.59;124556;1099;104239;-75
2022/11/10 03:26:51;;;;;;;35.23;16.73;;;;;;;7.35;81.51;101307.56;124707;1099;104654;-76
2022/11/10 03:29:40;;;;;;;34.90;16.83;;;;;;;7.38;81.74;101307.75;124668;1099;104258;-76
2022/11/10 03:32:30;;;;;;;40.63;18.33;;;;;;;7.40;81.61;101311.34;124679;1099;103454;-76
2022/11/10 03:35:20;;;;;;;37.13;16.47;;;;;;;7.41;81.97;101313.16;124622;1099;104235;-75
2022/11/10 03:38:10;;;;;;;36.60;17.63;;;;;;;7.42;82.14;101308.83;124562;1099;104172;-76
2022/11/10 03:40:59;;;;;;;39.07;18.90;;;;;;;7.43;81.86;101316.76;124648;1099;104258;-75
2022/11/10 03:43:49;;;;;;;40.70;18.03;;;;;;;7.42;82.31;101309.75;124609;1098;102775;-76
2022/11/10 03:46:39;;;;;;;41.87;18.07;;;;;;;7.44;82.02;101317.68;124673;1099;104201;-76
2022/11/10 03:49:29;;;;;;;39.90;18.60;;;;;;;7.44;82.65;101313.35;124597;1098;104188;-76
2022/11/10 03:52:19;;;;;;;45.27;18.97;;;;;;;7.45;82.42;101315.16;124617;1099;104179;-76
2022/11/10 03:55:10;;;;;;;44.53;19.80;;;;;;;7.46;82.57;101310.83;124603;1099;104300;-76
2022/11/10 03:58:04;;;;;;;46.33;21.00;;;;;;;7.46;82.56;101310.83;124648;1099;104160;-76
2022/11/10 04:00:56;;;;;;;40.60;19.53;;;;;;;7.46;82.44;101310.83;124679;1098;102511;-76
2022/11/10 04:03:45;;;;;;;45.07;20.43;;;;;;;7.46;82.78;101311.72;124633;1099;119066;-76
2022/11/10 04:09:43;;;;;;;43.40;18.63;;;;;;;7.46;82.65;101314.34;124568;1099;104239;-76
2022/11/10 04:15:44;;;;;;;46.20;17.97;;;;;;;7.43;82.99;101316.76;124578;1099;104216;-75
2022/11/10 04:18:34;;;;;;;46.83;19.77;;;;;;;7.42;82.58;101309.75;124554;1098;104325;-75
2022/11/10 04:21:24;;;;;;;41.57;19.27;;;;;;;7.42;82.95;101316.66;124540;1099;104182;-75
2022/11/10 04:24:13;;;;;;;42.83;18.97;;;;;;;7.44;82.92;101313.35;124541;1098;103852;-75
2022/11/10 04:27:03;;;;;;;44.97;18.10;;;;;;;7.44;82.83;101313.35;124569;1099;104169;-75
2022/11/10 04:29:53;;;;;;;45.10;18.27;;;;;;;7.43;83.00;101316.76;124557;1099;104269;-75
2022/11/10 04:32:43;;;;;;;44.10;16.35;;;;;;;7.42;82.54;101307.14;124552;1099;103185;-75
2022/11/10 04:35:32;;;;;;;43.87;18.90;;;;;;;7.43;82.79;101321.98;124536;1099;104238;-75
2022/11/10 04:38:22;;;;;;;48.13;18.70;;;;;;;7.43;83.51;101321.09;124598;1099;104258;-75
2022/11/10 04:41:12;;;;;;;42.27;17.97;;;;;;;7.42;82.87;101320.20;124552;1098;103645;-75
2022/11/10 04:44:03;;;;;;;46.13;19.17;;;;;;;7.45;83.11;101319.47;124596;1099;102835;-75
2022/11/10 04:46:52;;;;;;;51.20;17.60;;;;;;;7.46;83.00;101322.17;124556;1099;104229;-75
2022/11/10 04:49:42;;;;;;;44.20;18.30;;;;;;;7.47;83.11;101321.37;124603;1099;104309;-75
2022/11/10 04:52:32;;;;;;;47.73;17.97;;;;;;;7.49;83.31;101318.86;124609;1099;102936;-75
2022/11/10 04:55:21;;;;;;;42.07;17.07;;;;;;;7.51;83.02;101331.21;124538;1099;108915;-75
2022/11/10 04:58:11;;;;;;;46.10;17.87;;;;;;;7.54;83.24;101336.62;124596;1099;103652;-75
2022/11/10 05:01:05;;;;;;;41.70;18.05;;;;;;;7.56;84.03;101336.72;124604;1099;104176;-75
2022/11/10 05:03:54;;;;;;;42.63;16.73;;;;;;;7.60;83.88;101340.41;124528;1099;104335;-75
2022/11/10 05:06:44;;;;;;;45.50;18.87;;;;;;;7.63;83.76;101340.59;124543;1099;104194;-75
2022/11/10 05:09:34;;;;;;;38.07;17.30;;;;;;;7.65;83.64;101345.12;124539;1098;104163;-74
2022/11/10 05:12:23;;;;;;;41.97;18.80;;;;;;;7.68;83.80;101344.38;124568;1099;104201;-75
2022/11/10 05:15:14;;;;;;;43.00;18.73;;;;;;;7.71;83.79;101345.49;124556;1099;104277;-75
2022/11/10 05:18:03;;;;;;;40.80;18.00;;;;;;;7.75;83.84;101349.18;124601;1099;102006;-76
2022/11/10 05:20:53;;;;;;;37.03;17.57;;;;;;;7.79;83.78;101348.57;124535;1099;104744;-75
2022/11/10 05:23:43;;;;;;;42.13;17.33;;;;;;;7.82;84.00;101353.98;124561;1099;104165;-75
2022/11/10 05:26:32;;;;;;;37.40;16.97;;;;;;;7.86;83.72;101355.06;124614;1099;104274;-75
2022/11/10 05:29:22;;;;;;;39.80;17.93;;;;;;;7.88;83.48;101348.20;124580;1099;102867;-75
2022/11/10 05:32:14;;;;;;;42.57;17.53;;;;;;;7.90;83.49;101360.56;124529;1099;102591;-75
2022/11/10 05:35:04;;;;;;;37.80;17.83;;;;;;;7.95;84.11;101372.98;124570;1099;104162;-75
2022/11/10 05:37:54;;;;;;;41.40;18.97;;;;;;;7.98;83.76;101371.48;124539;1099;101906;-75
2022/11/10 05:40:44;;;;;;;42.67;18.23;;;;;;;8.02;83.80;101373.44;124583;1099;104190;-75
2022/11/10 05:43:33;;;;;;;37.83;17.57;;;;;;;8.05;83.95;101377.97;124597;1099;101970;-74
2022/11/10 05:46:24;;;;;;;38.03;17.60;;;;;;;8.09;83.74;101370.40;124506;1099;107955;-75
2022/11/10 05:49:14;;;;;;;39.90;17.57;;;;;;;8.14;84.01;101370.67;124587;1099;104331;-75
2022/11/10 05:52:04;;;;;;;38.47;17.60;;;;;;;8.17;84.20;101373.47;124497;1099;104239;-75
2022/11/10 05:54:54;;;;;;;41.30;18.37;;;;;;;8.19;83.99;101377.06;124591;1099;104242;-75
2022/11/10 05:57:45;;;;;;;40.57;16.80;;;;;;;8.21;84.04;101375.47;124550;1098;103774;-75
2022/11/10 06:00:36;;;;;;;37.57;16.50;;;;;;;8.23;84.15;101379.06;124562;1098;102168;-75
2022/11/10 06:03:25;;;;;;;37.97;16.43;;;;;;;8.26;83.94;101383.59;125002;1099;104733;-75
2022/11/10 06:06:15;;;;;;;36.93;17.30;;;;;;;8.32;84.02;101388.25;124664;1099;104210;-76
2022/11/10 06:09:05;;;;;;;38.87;17.90;;;;;;;8.36;83.96;101390.25;124616;1098;104192;-76
2022/11/10 06:11:54;;;;;;;33.53;16.83;;;;;;;8.40;84.45;101395.75;124646;1098;102277;-76
2022/11/10 06:14:44;;;;;;;34.33;16.17;;;;;;;8.44;84.03;101399.47;124599;1099;104176;-76
2022/11/10 06:17:38;;;;;;;36.97;17.17;;;;;;;8.46;84.58;101387.38;124622;1099;102854;-76
2022/11/10 06:20:28;;;;;;;34.37;16.03;;;;;;;8.50;84.42;101399.83;124899;1099;104035;-75
2022/11/10 06:23:18;;;;;;;33.33;16.50;;;;;;;8.53;83.91;101400.01;124977;1099;104214;-76
2022/11/10 06:26:08;;;;;;;34.37;16.43;;;;;;;8.57;84.20;101404.62;124968;1099;104195;-75
2022/11/10 06:28:58;;;;;;;34.43;16.10;;;;;;;8.62;84.30;101405.78;125085;1099;103329;-75
2022/11/10 06:31:48;;;;;;;35.73;16.27;;;;;;;8.66;84.55;101398.11;125149;1099;103061;-76
2022/11/10 06:34:37;;;;;;;34.00;16.23;;;;;;;8.69;83.90;101411.38;124947;1099;104059;-74
2022/11/10 06:37:32;;;;;;;34.83;16.60;;;;;;;8.72;84.65;101407.20;124964;1099;105046;-74
2022/11/10 06:40:26;;;;;;;32.07;15.90;;;;;;;8.79;84.63;101411.98;125301;1098;102929;-75
2022/11/10 06:43:16;;;;;;;32.03;15.53;;;;;;;8.83;84.57;101414.78;125152;1098;104638;-75
2022/11/10 06:46:06;;;;;;;30.97;14.97;;;;;;;8.86;84.09;101415.84;125162;1099;104070;-74
2022/11/10 06:48:56;;;;;;;31.83;15.30;;;;;;;8.89;84.53;101416.03;125062;1099;104236;-75
2022/11/10 06:51:47;;;;;;;31.10;14.75;;;;;;;8.94;84.52;101414.59;125163;1099;103089;-75
2022/11/10 06:54:36;;;;;;;30.50;14.80;;;;;;;8.96;84.24;101412.95;125128;1099;103647;-74
2022/11/10 06:57:26;;;;;;;29.93;15.27;;;;;;;8.99;84.55;101417.44;125127;1099;104341;-75
2022/11/10 07:00:18;;;;;;;28.37;14.53;;;;;;;9.01;84.06;101407.98;125189;1099;104233;-75
2022/11/10 07:03:22;;;;;;;28.27;14.37;;;;;;;9.08;83.98;101414.45;125702;1099;104245;-75
2022/11/10 07:10:40;;;;;;;28.33;14.37;;;;;;;9.24;84.08;101411.89;125152;1099;121526;-74
2022/11/10 07:13:32;;;;;;;32.33;15.10;;;;;;;9.28;84.20;101419.08;124639;1099;104479;-75
2022/11/10 07:17:01;;;;;;;;;;;;;;;;;;;;;
2022/11/10 07:20:04;;;;;;;28.53;14.57;;;;;;;9.38;83.70;101419.59;125561;1099;102508;-75
2022/11/10 07:23:02;;;;;;;25.80;13.93;;;;;;;9.40;83.83;101410.13;124680;1098;103344;-75
2022/11/10 07:25:52;;;;;;;27.60;13.33;;;;;;;9.44;83.58;101417.31;124691;1099;104189;-75
2022/11/10 07:28:42;;;;;;;27.07;13.77;;;;;;;9.46;84.01;101420.94;124636;1099;104290;-76
2022/11/10 07:31:32;;;;;;;26.43;13.60;;;;;;;9.49;84.13;101416.76;124666;1099;104227;-75
2022/11/10 07:41:16;;;;;;;25.27;12.30;;;;;;;9.71;84.06;101413.58;124510;1099;104214;-76
2022/11/10 07:44:08;;;;;;;26.13;13.30;;;;;;;9.81;83.53;101421.94;124649;1099;104242;-75
2022/11/10 07:47:02;;;;;;;26.33;12.93;;;;;;;9.85;83.41;101416.94;124672;1099;104179;-74
2022/11/10 07:49:59;;;;;;;26.52;12.47;;;;;;;9.99;83.96;101414.16;124709;1099;104204;-75
2022/11/10 07:52:50;;;;;;;25.67;12.30;;;;;;;10.08;83.74;101414.61;124664;1099;102305;-75
2022/11/10 07:56:01;;;;;;;26.90;13.00;;;;;;;10.23;83.70;101419.77;124739;1099;104213;-76
2022/11/10 07:59:38;;;;;;;28.93;13.83;;;;;;;10.39;83.37;101419.78;125446;1099;104361;-75
2022/11/10 08:03:07;;;;;;;26.53;12.30;;;;;;;10.57;83.84;101417.17;124962;1099;104166;-75
2022/11/10 08:06:15;;;;;;;26.33;13.00;;;;;;;10.74;83.32;101417.13;125454;1099;104191;-75
2022/11/10 08:09:11;;;;;;;27.77;13.07;;;;;;;10.88;83.54;101425.68;124732;1098;104625;-76
2022/11/10 08:12:01;;;;;;;26.00;13.17;;;;;;;11.09;83.29;101418.82;124673;1098;102452;-76
2022/11/10 08:14:57;;;;;;;28.30;13.80;;;;;;;11.30;83.69;101432.09;124653;1099;104195;-77
2022/11/10 08:17:48;;;;;;;28.07;12.20;;;;;;;11.50;83.46;101417.27;124673;1099;104060;-76
2022/11/10 08:20:40;;;;;;;24.73;11.10;;;;;;;11.64;83.35;101420.55;124728;1098;104191;-77
2022/11/10 08:23:31;;;;;;;23.87;9.93;;;;;;;11.78;82.98;101412.36;124889;1098;101990;-76
2022/11/10 08:26:21;;;;;;;18.07;8.87;;;;;;;11.83;82.30;101416.13;124829;1099;102020;-76
2022/11/10 08:29:12;;;;;;;19.90;9.80;;;;;;;11.92;82.52;101415.62;124675;1099;104221;-77
2022/11/10 08:32:06;;;;;;;19.37;9.50;;;;;;;12.09;82.31;101416.41;124811;1099;103641;-76
2022/11/10 08:38:15;;;;;;;18.33;8.70;;;;;;;12.25;81.91;101411.00;125538;1099;104367;-76
2022/11/10 08:41:17;;;;;;;19.43;8.83;;;;;;;12.32;81.55;101420.05;125608;1099;103304;-76
2022/11/10 08:44:18;;;;;;;20.43;9.67;;;;;;;12.42;80.77;101416.98;125503;1098;106706;-75
2022/11/10 08:47:08;;;;;;;18.60;9.13;;;;;;;12.49;81.28;101421.66;125530;1099;104221;-75
2022/11/10 08:50:00;;;;;;;21.23;9.83;;;;;;;12.47;81.00;101406.66;124642;1099;102581;-75
2022/11/10 08:52:52;;;;;;;19.07;8.83;;;;;;;12.63;80.49;101411.72;124742;1099;102848;-74
2022/11/10 08:55:45;;;;;;;17.33;8.50;;;;;;;12.67;79.46;101407.47;125984;1098;102313;-74
2022/11/10 08:58:36;;;;;;;17.60;8.80;;;;;;;12.72;79.79;101411.21;125633;1099;104778;-75
2022/11/10 09:01:29;;;;;;;18.27;8.50;;;;;;;12.73;78.73;101405.09;124778;1099;104166;-75
2022/11/10 09:04:24;;;;;;;17.83;8.23;;;;;;;12.66;79.82;101406.58;124770;1098;104223;-76
2022/11/10 09:07:15;;;;;;;20.15;8.75;;;;;;;12.79;79.76;101400.08;124871;1099;104236;-77
2022/11/10 09:10:08;;;;;;;19.07;8.83;;;;;;;12.86;78.60;101396.87;124824;1099;103296;-76
2022/11/10 09:13:04;;;;;;;17.25;7.70;;;;;;;12.90;78.75;101392.61;124668;1099;104309;-76
2022/11/10 09:16:00;;;;;;;21.27;8.57;;;;;;;13.02;79.25;101398.38;124786;1099;104163;-77
2022/11/10 09:18:53;;;;;;;17.83;8.47;;;;;;;13.06;78.98;101386.25;124776;1099;104206;-75
2022/11/10 09:21:44;;;;;;;17.32;7.58;;;;;;;13.13;77.95;101385.63;124684;1099;104242;-75
2022/11/10 09:24:34;;;;;;;17.43;7.90;;;;;;;13.18;78.29;101376.16;124720;1099;104271;-75
2022/11/10 09:27:25;;;;;;;18.13;8.03;;;;;;;13.24;77.81;101373.76;124772;1099;104197;-76
2022/11/10 09:30:16;;;;;;;16.07;7.60;;;;;;;13.30;78.57;101374.00;124808;1099;104169;-76
2022/11/10 09:33:08;;;;;;;15.03;7.53;;;;;;;13.41;78.26;101368.28;124756;1099;104264;-75
2022/11/10 09:36:06;;;;;;;16.67;8.13;;;;;;;13.50;78.13;101363.36;124787;1099;104172;-76
2022/11/10 09:38:56;;;;;;;14.33;7.03;;;;;;;13.56;77.50;101360.95;124832;1099;103264;-76
2022/11/10 09:41:50;;;;;;;15.77;7.57;;;;;;;13.61;76.89;101369.92;124727;1099;104054;-77
2022/11/10 09:44:45;;;;;;;16.87;7.75;;;;;;;13.74;77.60;101373.02;124526;1099;103642;-75
2022/11/10 09:47:42;;;;;;;16.30;7.97;;;;;;;13.81;77.33;101361.86;124762;1099;104217;-75
2022/11/10 09:50:41;;;;;;;15.23;7.63;;;;;;;13.90;76.67;101364.83;124746;1099;103475;-75
2022/11/10 09:53:37;;;;;;;16.60;7.20;;;;;;;13.96;76.78;101362.41;124775;1098;104306;-75
2022/11/10 09:56:34;;;;;;;15.00;7.17;;;;;;;14.02;76.12;101367.91;124670;1099;104358;-76
2022/11/10 09:59:28;;;;;;;18.17;7.40;;;;;;;14.10;76.17;101362.91;124770;1099;102347;-75
2022/11/10 10:02:30;;;;;;;13.10;6.70;;;;;;;14.15;75.21;101363.06;124751;1099;104202;-75
2022/11/10 10:05:46;;;;;;;14.53;7.20;;;;;;;14.18;75.52;101363.17;124834;1099;104264;-76
2022/11/10 10:08:46;;;;;;;15.90;6.83;;;;;;;14.28;75.27;101356.45;124808;1099;104254;-76
2022/11/10 10:11:48;;;;;;;12.53;6.57;;;;;;;14.38;75.24;101359.47;124831;1098;102508;-75
2022/11/10 10:15:06;;;;;;;13.13;6.07;;;;;;;14.46;74.98;101346.52;124785;1099;104277;-75
2022/11/10 10:18:13;;;;;;;12.33;6.33;;;;;;;14.56;74.02;101345.95;124751;1099;103363;-75
2022/11/10 10:21:30;;;;;;;13.93;6.27;;;;;;;14.62;75.04;101344.42;124970;1099;102305;-75
2022/11/10 10:24:29;;;;;;;13.18;6.03;;;;;;;14.66;74.15;101346.30;125497;1099;104271;-76
2022/11/10 10:27:35;;;;;;;11.57;6.13;;;;;;;14.70;74.38;101351.73;125539;1099;102219;-74
2022/11/10 10:30:30;;;;;;;12.00;6.05;;;;;;;14.75;73.71;101341.31;125570;1099;102315;-74
2022/11/10 10:33:22;;;;;;;13.77;7.03;;;;;;;14.82;73.79;101342.39;124853;1099;102258;-74
2022/11/10 10:36:26;;;;;;;13.50;6.53;;;;;;;14.88;73.86;101335.58;124760;1099;102254;-75
2022/11/10 10:39:29;;;;;;;12.70;6.00;;;;;;;14.93;73.48;101330.44;124346;1099;105039;-74
2022/11/10 10:42:30;;;;;;;20.67;6.83;;;;;;;14.93;72.59;101330.44;124794;1099;104328;-74
2022/11/10 10:45:25;;;;;;;14.23;6.67;;;;;;;14.97;71.68;101321.73;124781;1099;104259;-74
2022/11/10 10:48:31;;;;;;;12.30;6.00;;;;;;;15.01;72.15;101325.39;124788;1099;102283;-75
2022/11/10 10:51:32;;;;;;;10.93;5.77;;;;;;;15.02;70.30;101313.95;124747;1098;104653;-75
2022/11/10 10:54:33;;;;;;;13.47;6.27;;;;;;;14.99;70.36;101320.06;124401;1099;104333;-75
2022/11/10 10:57:28;;;;;;;15.25;6.75;;;;;;;14.99;70.97;101321.78;124715;1099;107514;-75
2022/11/10 11:00:24;;;;;;;13.43;6.60;;;;;;;15.01;71.28;101328.92;124725;1099;104264;-74
2022/11/10 11:03:27;;;;;;;12.93;6.40;;;;;;;15.04;69.91;101313.16;124798;1099;104159;-74
2022/11/10 11:06:24;;;;;;;12.60;6.37;;;;;;;15.08;69.99;101322.98;124849;1098;104160;-75
2022/11/10 11:09:19;;;;;;;13.43;6.90;;;;;;;15.08;68.69;101317.70;124685;1099;103642;-74
2022/11/10 11:12:13;;;;;;;12.87;6.30;;;;;;;15.12;68.80;101320.44;124672;1099;104402;-77
2022/11/10 11:15:27;;;;;;;14.77;6.43;;;;;;;15.11;68.99;101308.94;124668;1099;104310;-77
2022/11/10 11:18:19;;;;;;;14.58;6.55;;;;;;;15.14;69.16;101305.51;124661;1098;110513;-77
2022/11/10 11:21:25;;;;;;;12.90;6.30;;;;;;;15.14;68.80;101308.16;124713;1099;104252;-76
2022/11/10 11:24:33;;;;;;;13.93;6.60;;;;;;;15.12;68.73;101310.75;125523;1099;104172;-76
2022/11/10 11:27:35;;;;;;;15.03;6.97;;;;;;;15.13;68.73;101306.34;124607;1099;104175;-76
2022/11/10 11:30:29;;;;;;;15.27;7.37;;;;;;;15.13;68.43;101308.98;124665;1098;104064;-76
2022/11/10 11:33:33;;;;;;;16.80;7.17;;;;;;;15.14;68.06;101308.16;124689;1099;104268;-76
2022/11/10 11:36:36;;;;;;;14.50;6.50;;;;;;;15.13;68.02;101307.27;124732;1099;104201;-76
2022/11/10 11:39:42;;;;;;;14.83;6.67;;;;;;;15.14;68.44;101302.86;124615;1099;117880;-76
2022/11/10 11:42:50;;;;;;;13.00;6.53;;;;;;;15.15;67.39;101310.84;124699;1099;102726;-77
2022/11/10 11:45:53;;;;;;;15.47;6.80;;;;;;;15.17;67.15;101295.91;124705;1099;104201;-77
2022/11/10 11:49:06;;;;;;;13.85;6.70;;;;;;;15.15;66.35;101300.27;124702;1099;102858;-78
2022/11/10 11:52:23;;;;;;;12.73;6.43;;;;;;;15.16;66.82;101311.73;125105;1099;102389;-78
2022/11/10 11:55:55;;;;;;;15.60;6.37;;;;;;;15.19;66.53;101306.53;125431;1102;104025;-77
2022/11/10 11:58:57;;;;;;;14.53;6.83;;;;;;;15.20;65.39;101305.69;125491;1098;104256;-75
2022/11/10 12:02:15;;;;;;;14.80;6.87;;;;;;;15.20;65.09;101305.69;124723;1099;104172;-75
2022/11/10 12:05:27;;;;;;;14.70;7.00;;;;;;;15.20;65.29;101308.33;125175;1098;102437;-75
2022/11/10 12:08:27;;;;;;;15.37;6.70;;;;;;;15.18;65.06;101299.47;124774;1099;102969;-76
2022/11/10 12:11:52;;;;;;;14.60;6.40;;;;;;;15.18;65.27;101308.29;125006;1099;104251;-77
2022/11/10 12:15:00;;;;;;;13.83;6.67;;;;;;;15.18;65.11;101310.05;125559;1099;104306;-75
2022/11/10 12:18:00;;;;;;;13.00;6.23;;;;;;;15.15;64.05;101302.91;124821;1100;102868;-74
2022/11/10 12:21:09;;;;;;;14.50;6.27;;;;;;;15.14;64.59;101302.86;125887;1098;110751;-74
2022/11/10 12:24:29;;;;;;;;;;;;;;;;;;;;;
2022/11/10 12:27:39;;;;;;;13.93;6.80;;;;;;;15.08;63.88;101298.28;124779;1099;103487;-74
2022/11/10 12:30:37;;;;;;;12.07;6.40;;;;;;;15.06;63.63;101306.16;124790;1099;104246;-74
2022/11/10 12:33:38;;;;;;;14.93;6.37;;;;;;;15.06;64.11;101297.34;124930;1099;104214;-75
2022/11/10 12:36:31;;;;;;;18.43;6.87;;;;;;;15.04;63.87;101293.77;124899;1099;102870;-74
2022/11/10 12:39:25;;;;;;;13.20;6.70;;;;;;;15.03;63.06;101298.14;124914;1098;104255;-75
2022/11/10 12:42:20;;;;;;;14.87;6.33;;;;;;;15.02;63.53;101301.66;125472;1099;104224;-74
2022/11/10 12:45:21;;;;;;;13.70;6.03;;;;;;;15.03;64.09;101300.78;124302;1099;104262;-75
2022/11/10 12:52:03;;;;;;;15.87;6.33;;;;;;;15.01;63.63;101304.25;125499;1099;111022;-72
2022/11/10 12:54:53;;;;;;;18.03;6.40;;;;;;;15.01;63.46;101302.49;124873;1099;102222;-74
2022/11/10 12:57:53;;;;;;;13.13;6.47;;;;;;;14.99;63.60;101306.84;125116;1099;102706;-73
2022/11/10 13:01:25;;;;;;;12.67;6.17;;;;;;;14.95;62.46;101304.06;125423;1099;104264;-74
2022/11/10 13:15:40;;;;;;;15.50;6.90;;;;;;;14.88;63.05;101306.52;125626;1099;118953;-73
2022/11/10 13:18:59;;;;;;;13.20;6.23;;;;;;;14.87;62.33;101309.11;124799;1099;102544;-74
2022/11/10 13:22:12;;;;;;;14.30;6.33;;;;;;;14.84;62.56;101315.19;125983;1098;102022;-74
2022/11/10 13:25:49;;;;;;;15.67;6.00;;;;;;;14.81;62.07;101309.80;124759;1099;102790;-74
2022/11/10 13:28:57;;;;;;;14.83;6.20;;;;;;;14.78;62.27;101303.53;124257;1102;102170;-74
2022/11/10 13:31:59;;;;;;;16.60;6.70;;;;;;;14.75;62.61;101314.89;124714;1099;104210;-74
2022/11/10 13:34:50;;;;;;;13.60;7.00;;;;;;;14.73;62.52;101314.84;124724;1099;102437;-75
2022/11/10 13:37:58;;;;;;;18.43;7.63;;;;;;;14.72;62.53;101322.72;124712;1099;104217;-72
2022/11/10 13:48:36;;;;;;;14.47;6.80;;;;;;;14.59;61.65;101323.16;124205;1102;120693;-73
2022/11/10 14:14:02;;;;;;;22.73;7.67;;;;;;;14.26;61.99;101337.92;125988;1102;102563;-74
2022/11/10 14:17:14;;;;;;;21.00;8.73;;;;;;;14.19;62.00;101334.19;124764;1105;104357;-74
2022/11/10 14:27:52;;;;;;;20.50;8.27;;;;;;;14.02;61.97;101343.24;124564;1102;104197;-73